Apple Springs, Texas
Current Conditions -  °F | °C
As of 4:53 PM on Thursday 27 Nov 2014 (Local Time) from KLFK Reporting Station
Clear Clear  
Wind Chill: 16°   Ceiling: Unl
Heat Index: 16°   Visibility: 10mi
Dew Point:   Wind: 5mph
Humidity: 36%   Direction: 90°E
Pressure: 30.42"   Gusts: NA
Location:  31.22°N, 94.97°W
Report Text: KLFK 272253Z AUTO 09004KT 10SM CLR 16/01 A3042 RMK AO2 SLP301 T01560006 $
Loading
Personal Weather Stations






























Interactive Weather Map New forecast layout! Learn more

10-Day Weather Forecast

Advertisements
Track Severe Weather on mobile